Time;durP1;ratioP1;P1;durP2;ratioP2;P2;SDS_P1;SDS_P2;PMS_P1;PMS_P2;Temp;Humidity;BMP_temperature;BMP_pressure;BME280_temperature;BME280_humidity;BME280_pressure;Samples;Min_cycle;Max_cycle;Signal;HPM_P1;HPM_P2
2022/09/24 00:00:07;;;;;;;;;;;;;;;19.47;50.87;101245.47;5065498;28;19935;-53
2022/09/24 00:02:32;;;;;;;;;;;;;;;19.47;51.09;101239.25;5064741;28;19908;-51
2022/09/24 00:04:58;;;;;;;;;;;;;;;19.47;50.88;101242.78;5065446;28;19979;-51
2022/09/24 00:07:23;;;;;;;;;;;;;;;19.46;51.01;101241.09;5064906;28;19935;-55
2022/09/24 00:09:48;;;;;;;;;;;;;;;19.46;50.93;101240.25;5065806;28;19912;-52
2022/09/24 00:12:13;;;;;;;;;;;;;;;19.46;50.94;101241.09;5065390;28;20380;-51
2022/09/24 00:14:38;;;;;;;;;;;;;;;19.46;51.00;101237.56;5065443;28;19920;-52
2022/09/24 00:17:04;;;;;;;;;;;;;;;19.46;51.21;101241.09;5064741;28;19912;-53
2022/09/24 00:19:29;;;;;;;;;;;;;;;19.46;51.09;101229.47;5064521;28;19921;-53
2022/09/24 00:21:55;;;;;;;;;;;;;;;19.45;50.87;101239.44;5064689;28;19913;-53
2022/09/24 00:27:04;;;;;;;;;;;;;;;19.45;51.01;101227.75;5064921;28;19962;-52
2022/09/24 00:29:34;;;;;;;;;;;;;;;19.45;51.07;101222.38;5063666;28;19913;-54
2022/09/24 00:31:59;;;;;;;;;;;;;;;19.45;51.12;101233.16;5064694;28;19978;-54
2022/09/24 00:34:24;;;;;;;;;;;;;;;19.44;51.01;101226.94;5064317;28;19909;-51
2022/09/24 00:36:51;;;;;;;;;;;;;;;19.44;50.95;101228.78;5064395;28;19908;-52
2022/09/24 00:39:16;;;;;;;;;;;;;;;19.44;51.17;101223.38;5064772;28;19913;-52
2022/09/24 00:41:47;;;;;;;;;;;;;;;19.43;50.86;101224.41;5064363;28;19999;-54
2022/09/24 00:44:31;;;;;;;;;;;;;;;19.42;51.10;101212.78;5065154;28;19908;-55
2022/09/24 00:46:56;;;;;;;;;;;;;;;19.43;51.09;101216.31;5064452;28;20416;-55
2022/09/24 00:49:21;;;;;;;;;;;;;;;19.42;51.09;101217.34;5064212;28;19916;-55
2022/09/24 00:51:47;;;;;;;;;;;;;;;19.42;50.78;101215.47;5064114;28;19916;-53
2022/09/24 00:54:17;;;;;;;;;;;;;;;19.42;51.04;101214.63;5097323;28;19915;-53
2022/09/24 00:56:42;;;;;;;;;;;;;;;19.43;51.02;101213.63;5097074;28;19924;-55
2022/09/24 00:59:07;;;;;;;;;;;;;;;19.41;50.84;101208.41;5096503;28;19916;-54
2022/09/24 01:01:33;;;;;;;;;;;;;;;19.40;51.13;101208.53;5059238;28;19920;-54
2022/09/24 01:03:58;;;;;;;;;;;;;;;19.41;50.87;101207.53;5063003;28;19908;-53
2022/09/24 01:06:24;;;;;;;;;;;;;;;19.17;50.95;101162.50;5064024;28;19988;-52
2022/09/24 01:08:49;;;;;;;;;;;;;;;19.40;50.90;101201.28;5063108;28;19913;-56
2022/09/24 01:11:18;;;;;;;;;;;;;;;19.40;50.99;101204.00;5064417;28;19915;-55
2022/09/24 01:13:43;;;;;;;;;;;;;;;19.39;51.12;101199.63;5096405;28;19909;-54
2022/09/24 01:16:13;;;;;;;;;;;;;;;19.39;50.72;101193.38;5064235;28;19919;-53
2022/09/24 01:18:54;;;;;;;;;;;;;;;19.38;50.99;101189.84;5094642;28;19907;-54
2022/09/24 01:21:31;;;;;;;;;;;;;;;19.39;50.97;101186.13;5062643;28;19920;-55
2022/09/24 01:24:02;;;;;;;;;;;;;;;19.39;50.94;101182.59;5063911;28;19908;-54
2022/09/24 01:26:38;;;;;;;;;;;;;;;19.38;51.06;101179.06;5063979;28;20414;-55
2022/09/24 01:29:22;;;;;;;;;;;;;;;19.38;51.04;101176.38;5062418;28;19909;-53
2022/09/24 01:31:49;;;;;;;;;;;;;;;19.37;50.95;101180.06;5063593;28;19912;-55
2022/09/24 01:34:16;;;;;;;;;;;;;;;19.38;50.86;101172.81;5061817;28;19964;-52
2022/09/24 01:36:41;;;;;;;;;;;;;;;19.38;50.82;101175.53;5062098;28;19909;-52
2022/09/24 01:39:06;;;;;;;;;;;;;;;19.37;50.98;101166.59;5063364;28;20019;-54
2022/09/24 01:41:33;;;;;;;;;;;;;;;19.37;51.02;101169.28;5096270;28;19915;-53
2022/09/24 01:43:58;;;;;;;;;;;;;;;19.37;51.04;101165.72;5063738;28;19934;-53
2022/09/24 01:46:23;;;;;;;;;;;;;;;19.35;51.09;101165.91;5095973;28;20027;-52
2022/09/24 01:48:49;;;;;;;;;;;;;;;19.36;50.77;101166.75;5062683;28;19912;-54
2022/09/24 01:51:20;;;;;;;;;;;;;;;19.36;50.83;101172.13;5061984;28;19919;-53
2022/09/24 01:53:55;;;;;;;;;;;;;;;19.35;50.96;101165.06;5062665;28;19974;-55
2022/09/24 01:56:24;;;;;;;;;;;;;;;19.35;50.98;101159.66;5063764;28;19908;-54
2022/09/24 01:59:03;;;;;;;;;;;;;;;19.35;50.83;101165.91;5062922;28;19927;-55
2022/09/24 02:01:37;;;;;;;;;;;;;;;19.35;50.75;101160.50;5062032;28;19913;-54
2022/09/24 02:04:05;;;;;;;;;;;;;;;19.34;51.03;101155.28;5061259;28;20007;-52
2022/09/24 02:06:35;;;;;;;;;;;;;;;19.34;50.97;101150.75;5095137;28;19916;-52
2022/09/24 02:09:00;;;;;;;;;;;;;;;19.34;50.75;101149.91;5095429;28;19908;-53
2022/09/24 02:11:26;;;;;;;;;;;;;;;19.33;50.90;101143.66;5063199;28;19935;-52
2022/09/24 02:14:03;;;;;;;;;;;;;;;19.33;51.02;101142.84;5063260;28;19915;-52
2022/09/24 02:16:35;;;;;;;;;;;;;;;19.32;51.00;101147.34;5061860;28;19909;-52
2022/09/24 02:19:03;;;;;;;;;;;;;;;19.33;50.71;101153.63;5062195;28;19909;-51
2022/09/24 02:21:28;;;;;;;;;;;;;;;19.33;50.90;101145.53;5095011;28;19920;-54
2022/09/24 02:23:59;;;;;;;;;;;;;;;19.33;51.14;101146.38;5063255;28;19940;-55
2022/09/24 02:26:24;;;;;;;;;;;;;;;19.32;50.85;101143.81;5062892;28;20289;-53
2022/09/24 02:28:49;;;;;;;;;;;;;;;19.32;50.93;101139.25;5062827;28;19909;-52
2022/09/24 02:31:16;;;;;;;;;;;;;;;19.33;51.01;101142.84;5095227;28;19916;-54
2022/09/24 02:36:28;;;;;;;;;;;;;;;19.31;50.85;101128.66;5090138;28;19931;-52
2022/09/24 02:38:53;;;;;;;;;;;;;;;19.31;51.15;101132.19;5078218;28;19909;-51
2022/09/24 02:41:22;;;;;;;;;;;;;;;19.31;51.01;101128.66;5063243;28;19913;-49
2022/09/24 02:43:47;;;;;;;;;;;;;;;19.30;50.99;101135.91;5063126;28;19921;-50
2022/09/24 02:46:12;;;;;;;;;;;;;;;19.30;51.05;101133.22;5062765;28;19909;-52
2022/09/24 02:48:37;;;;;;;;;;;;;;;19.28;51.00;101121.72;5061916;28;19913;-54
2022/09/24 02:51:03;;;;;;;;;;;;;;;19.29;50.84;101126.13;5062336;28;19916;-50
2022/09/24 02:53:29;;;;;;;;;;;;;;;19.29;51.03;101131.53;5063054;28;19908;-52
2022/09/24 02:55:54;;;;;;;;;;;;;;;19.29;50.94;101130.69;5062985;28;19978;-53
2022/09/24 02:58:19;;;;;;;;;;;;;;;19.29;50.87;101122.59;5062284;28;19962;-53
2022/09/24 03:00:44;;;;;;;;;;;;;;;19.29;51.00;101125.31;5062293;28;19928;-51
2022/09/24 03:03:10;;;;;;;;;;;;;;;19.29;51.05;101122.59;5054325;28;19909;-53
2022/09/24 03:05:35;;;;;;;;;;;;;;;19.28;51.04;101127.13;5045482;28;19909;-56
2022/09/24 03:08:00;;;;;;;;;;;;;;;19.28;51.06;101124.44;5046007;28;19909;-51
2022/09/24 03:10:25;;;;;;;;;;;;;;;19.28;51.21;101120.88;5053438;28;19908;-51
2022/09/24 03:12:50;;;;;;;;;;;;;;;19.28;51.22;101128.97;5066691;28;20365;-52
2022/09/24 03:15:16;;;;;;;;;;;;;;;19.29;51.25;101126.13;5066818;28;19908;-53
2022/09/24 03:17:41;;;;;;;;;;;;;;;19.29;51.42;101109.97;5065342;28;19920;-51
2022/09/24 03:20:06;;;;;;;;;;;;;;;19.30;51.44;101113.50;5065559;28;19917;-52
2022/09/24 03:22:31;;;;;;;;;;;;;;;19.30;51.36;101117.03;5065529;28;19916;-52
2022/09/24 03:24:57;;;;;;;;;;;;;;;19.31;51.75;101115.19;5066049;28;19976;-52
2022/09/24 03:27:22;;;;;;;;;;;;;;;19.31;51.42;101110.63;5065403;28;19916;-54
2022/09/24 03:32:32;;;;;;;;;;;;;;;19.32;51.73;101114.16;5064969;28;19920;-53
2022/09/24 03:34:58;;;;;;;;;;;;;;;19.32;51.83;101106.91;5065475;28;19968;-53
2022/09/24 03:37:23;;;;;;;;;;;;;;;19.32;51.71;101112.31;5064895;28;19935;-53
2022/09/24 03:39:48;;;;;;;;;;;;;;;19.34;51.57;101109.47;5065602;28;20324;-53
2022/09/24 03:42:13;;;;;;;;;;;;;;;19.33;51.88;101113.19;5066015;28;19932;-53
2022/09/24 03:44:38;;;;;;;;;;;;;;;19.33;51.89;101105.94;5066206;28;19913;-54
2022/09/24 03:47:03;;;;;;;;;;;;;;;19.33;51.88;101105.94;5065784;28;19955;-53
2022/09/24 03:49:29;;;;;;;;;;;;;;;19.34;51.95;101106.75;5065376;28;19920;-53
2022/09/24 03:51:54;;;;;;;;;;;;;;;19.34;51.74;101106.75;5065202;28;19916;-52
2022/09/24 03:54:19;;;;;;;;;;;;;;;19.33;51.71;101114.00;5065838;28;19917;-53
2022/09/24 03:56:44;;;;;;;;;;;;;;;19.32;51.74;101106.91;5065435;28;20044;-53
2022/09/24 03:59:09;;;;;;;;;;;;;;;19.32;51.62;101109.59;5065126;28;19984;-54
2022/09/24 04:01:36;;;;;;;;;;;;;;;19.32;51.71;101112.31;5065327;28;19917;-54
2022/09/24 04:04:02;;;;;;;;;;;;;;;19.31;51.62;101107.94;5064919;28;19908;-52
2022/09/24 04:06:27;;;;;;;;;;;;;;;19.30;51.78;101108.94;5064832;28;20431;-52
2022/09/24 04:08:52;;;;;;;;;;;;;;;19.29;51.69;101107.28;5065441;28;19913;-52
2022/09/24 04:11:17;;;;;;;;;;;;;;;19.30;51.55;101106.25;5065523;28;19913;-53
2022/09/24 04:13:42;;;;;;;;;;;;;;;19.29;51.73;101107.28;5065256;28;19962;-53
2022/09/24 04:16:08;;;;;;;;;;;;;;;19.30;51.52;101102.72;5064377;28;19908;-55
2022/09/24 04:18:33;;;;;;;;;;;;;;;19.29;51.77;101099.19;5064638;28;19909;-52
2022/09/24 04:20:58;;;;;;;;;;;;;;;19.29;51.67;101106.44;5064879;28;19962;-54
2022/09/24 04:23:24;;;;;;;;;;;;;;;19.28;51.67;101099.31;5065515;28;19963;-53
2022/09/24 04:25:49;;;;;;;;;;;;;;;19.28;51.73;101099.31;5065383;28;19912;-53
2022/09/24 04:28:14;;;;;;;;;;;;;;;19.27;51.70;101094.94;5064884;28;19980;-52
2022/09/24 04:30:39;;;;;;;;;;;;;;;19.27;51.63;101090.41;5065232;28;19991;-54
2022/09/24 04:33:05;;;;;;;;;;;;;;;19.27;51.48;101097.66;5064548;28;19916;-52
2022/09/24 04:35:31;;;;;;;;;;;;;;;19.26;51.67;101093.28;5064880;28;19934;-49
2022/09/24 04:37:56;;;;;;;;;;;;;;;19.26;51.33;101094.13;5064057;28;19975;-55
2022/09/24 04:40:21;;;;;;;;;;;;;;;19.26;51.72;101094.13;5065000;28;19909;-52
2022/09/24 04:42:47;;;;;;;;;;;;;;;19.25;51.53;101092.44;5065134;28;19919;-54
2022/09/24 04:45:13;;;;;;;;;;;;;;;19.25;51.53;101096.97;5065059;28;19991;-54
2022/09/24 04:47:39;;;;;;;;;;;;;;;19.25;51.60;101094.28;5064271;28;19909;-52
2022/09/24 04:50:05;;;;;;;;;;;;;;;19.25;51.56;101097.81;5064837;28;19912;-52
2022/09/24 04:52:32;;;;;;;;;;;;;;;19.23;51.60;101095.28;5062802;28;19944;-51
2022/09/24 04:54:58;;;;;;;;;;;;;;;19.24;51.61;101096.13;5064872;28;20000;-54
2022/09/24 04:57:24;;;;;;;;;;;;;;;19.23;51.48;101100.66;5064240;28;19944;-54
2022/09/24 04:59:49;;;;;;;;;;;;;;;19.22;51.34;101096.28;5064183;28;19935;-51
2022/09/24 05:02:14;;;;;;;;;;;;;;;19.22;51.58;101100.84;5064049;28;19972;-54
2022/09/24 05:04:39;;;;;;;;;;;;;;;19.22;51.68;101099.00;5063523;28;19917;-52
2022/09/24 05:07:05;;;;;;;;;;;;;;;19.22;51.44;101099.00;5057922;28;19909;-53
2022/09/24 05:09:33;;;;;;;;;;;;;;;19.22;51.65;101106.25;5045228;28;19960;-50
2022/09/24 05:11:59;;;;;;;;;;;;;;;19.21;51.56;101102.69;5064940;28;19908;-51
2022/09/24 05:14:24;;;;;;;;;;;;;;;19.21;51.51;101104.56;5065143;28;19908;-51
2022/09/24 05:16:49;;;;;;;;;;;;;;;19.21;51.75;101112.66;5064945;28;19967;-52
2022/09/24 05:19:14;;;;;;;;;;;;;;;19.19;51.33;101107.41;5064176;28;19912;-51
2022/09/24 05:21:39;;;;;;;;;;;;;;;19.20;51.45;101108.28;5064635;28;19962;-51
2022/09/24 05:24:05;;;;;;;;;;;;;;;19.19;51.47;101111.94;5064866;28;19909;-52
2022/09/24 05:29:14;;;;;;;;;;;;;;;19.18;51.44;101105.72;5064409;28;19916;-51
2022/09/24 05:31:39;;;;;;;;;;;;;;;19.18;51.23;101115.66;5064332;28;19912;-51
2022/09/24 05:34:04;;;;;;;;;;;;;;;19.18;51.30;101105.72;5063779;28;19915;-54
2022/09/24 05:36:30;;;;;;;;;;;;;;;19.17;51.39;101114.81;5064227;28;19916;-52
2022/09/24 05:38:55;;;;;;;;;;;;;;;19.17;51.33;101112.13;5064190;28;19995;-52
2022/09/24 05:41:20;;;;;;;;;;;;;;;19.17;51.50;101113.97;5064765;28;19909;-52
2022/09/24 05:43:45;;;;;;;;;;;;;;;19.18;51.52;101123.75;5064331;28;19915;-53
2022/09/24 05:46:10;;;;;;;;;;;;;;;19.17;51.43;101117.50;5064597;28;19947;-54
2022/09/24 05:48:36;;;;;;;;;;;;;;;19.17;51.28;101116.69;5063687;28;20000;-55
2022/09/24 05:51:01;;;;;;;;;;;;;;;19.16;51.32;101123.91;5064339;28;19912;-55
2022/09/24 05:53:26;;;;;;;;;;;;;;;19.16;51.52;101121.22;5064258;28;19953;-53
2022/09/24 05:55:51;;;;;;;;;;;;;;;19.16;51.38;101117.69;5064622;28;19909;-52
2022/09/24 05:58:17;;;;;;;;;;;;;;;19.16;51.25;101120.38;5064026;28;19917;-51
2022/09/24 06:00:42;;;;;;;;;;;;;;;19.15;51.28;101127.59;5064045;28;19923;-52
2022/09/24 06:03:12;;;;;;;;;;;;;;;19.15;51.47;101124.91;5056382;28;19940;-55
2022/09/24 06:05:38;;;;;;;;;;;;;;;19.15;51.25;101122.22;5057583;28;19912;-53
2022/09/24 06:08:04;;;;;;;;;;;;;;;19.15;51.38;101124.91;5063424;28;19909;-53
2022/09/24 06:10:29;;;;;;;;;;;;;;;19.15;51.34;101124.06;5064636;28;20007;-52
2022/09/24 06:12:54;;;;;;;;;;;;;;;19.14;51.60;101120.53;5064140;28;19991;-53
2022/09/24 06:15:19;;;;;;;;;;;;;;;19.15;51.25;101140.25;5064404;28;20367;-54
2022/09/24 06:17:45;;;;;;;;;;;;;;;19.15;51.46;101130.28;5063793;28;19931;-52
2022/09/24 06:20:10;;;;;;;;;;;;;;;19.14;51.45;101131.31;5064028;28;20011;-53
2022/09/24 06:22:35;;;;;;;;;;;;;;;19.14;51.34;101136.69;5063606;28;20361;-52
2022/09/24 06:25:00;;;;;;;;;;;;;;;19.14;51.53;101133.16;5064312;28;19908;-55
2022/09/24 06:27:25;;;;;;;;;;;;;;;19.13;51.30;101126.09;5063855;28;19915;-55
2022/09/24 06:29:50;;;;;;;;;;;;;;;19.13;51.22;101132.31;5063824;28;19908;-53
2022/09/24 06:32:17;;;;;;;;;;;;;;;19.14;51.27;101135.88;5063635;28;19915;-56
2022/09/24 06:34:43;;;;;;;;;;;;;;;19.13;51.30;101135.03;5063205;28;19913;-53
2022/09/24 06:37:08;;;;;;;;;;;;;;;19.13;51.40;101136.88;5063290;28;19913;-54
2022/09/24 06:39:33;;;;;;;;;;;;;;;19.13;51.41;101142.28;5064607;28;19913;-55
2022/09/24 06:41:58;;;;;;;;;;;;;;;19.13;51.44;101143.09;5068207;28;19908;-54
2022/09/24 06:44:24;;;;;;;;;;;;;;;19.12;51.22;101138.72;5067849;28;19992;-53
2022/09/24 06:46:50;;;;;;;;;;;;;;;19.13;51.09;101140.41;5067962;28;19913;-54
2022/09/24 06:49:15;;;;;;;;;;;;;;;19.13;51.33;101145.81;5067134;28;19916;-54
2022/09/24 06:51:40;;;;;;;;;;;;;;;19.13;51.28;101150.34;5067536;28;19991;-55
2022/09/24 06:54:05;;;;;;;;;;;;;;;19.12;51.27;101152.22;5067911;28;19951;-55
2022/09/24 06:56:30;;;;;;;;;;;;;;;19.13;51.27;101153.06;5067786;28;19916;-56
2022/09/24 06:58:56;;;;;;;;;;;;;;;19.13;51.38;101156.59;5067221;28;19990;-54
2022/09/24 07:01:21;;;;;;;;;;;;;;;19.13;51.29;101153.06;5067187;28;19966;-54
2022/09/24 07:03:46;;;;;;;;;;;;;;;19.13;51.18;101155.75;5067116;28;19912;-55
2022/09/24 07:06:11;;;;;;;;;;;;;;;19.14;51.09;101162.81;5067150;28;19913;-52
2022/09/24 07:08:37;;;;;;;;;;;;;;;19.12;51.35;101156.75;5066071;28;19909;-53
2022/09/24 07:11:02;;;;;;;;;;;;;;;19.12;51.23;101154.91;5067740;28;19916;-55
2022/09/24 07:13:27;;;;;;;;;;;;;;;19.13;51.36;101156.59;5067217;28;19916;-54
2022/09/24 07:15:52;;;;;;;;;;;;;;;19.13;51.43;101153.88;5067693;28;19916;-51
2022/09/24 07:18:18;;;;;;;;;;;;;;;19.13;51.24;101161.13;5066652;28;19908;-53
2022/09/24 07:20:43;;;;;;;;;;;;;;;19.13;51.05;101163.84;5067077;28;19920;-53
2022/09/24 07:23:09;;;;;;;;;;;;;;;19.12;51.36;101163.00;5067489;28;20275;-55
2022/09/24 07:25:35;;;;;;;;;;;;;;;19.12;51.21;101168.38;5067253;28;19940;-52
2022/09/24 07:28:04;;;;;;;;;;;;;;;19.13;51.33;101169.22;5066723;28;19978;-50
2022/09/24 07:30:30;;;;;;;;;;;;;;;19.12;51.27;101165.69;5066934;28;19905;-54
2022/09/24 07:32:55;;;;;;;;;;;;;;;19.12;51.35;101172.94;5066473;28;19931;-55
2022/09/24 07:35:21;;;;;;;;;;;;;;;19.12;51.35;101165.69;5066839;28;19972;-55
2022/09/24 07:37:46;;;;;;;;;;;;;;;19.12;51.31;101168.38;5066427;28;19908;-54
2022/09/24 07:40:12;;;;;;;;;;;;;;;19.12;51.23;101167.53;5067009;28;19912;-55
2022/09/24 07:42:37;;;;;;;;;;;;;;;19.13;51.18;101170.06;5066942;28;19976;-52
2022/09/24 07:45:03;;;;;;;;;;;;;;;19.13;51.24;101171.91;5098958;28;20356;-52
2022/09/24 07:47:28;;;;;;;;;;;;;;;19.12;51.20;101173.78;5066542;28;20272;-52
2022/09/24 07:49:53;;;;;;;;;;;;;;;19.13;51.27;101182.69;5066265;28;19931;-54
2022/09/24 07:52:18;;;;;;;;;;;;;;;19.13;51.10;101185.41;5066249;28;19984;-53
2022/09/24 07:54:44;;;;;;;;;;;;;;;19.12;51.29;101184.56;5066735;28;19955;-55
2022/09/24 07:57:11;;;;;;;;;;;;;;;19.13;51.16;101186.22;5066700;28;19916;-51
2022/09/24 07:59:36;;;;;;;;;;;;;;;19.13;51.47;101191.63;5066152;28;19917;-54
2022/09/24 08:02:01;;;;;;;;;;;;;;;19.12;51.16;101189.94;5066301;28;19909;-55
2022/09/24 08:04:27;;;;;;;;;;;;;;;19.13;51.10;101186.22;5055003;28;19964;-56
2022/09/24 08:06:52;;;;;;;;;;;;;;;19.12;51.31;101187.25;5066115;28;19908;-53
2022/09/24 08:09:17;;;;;;;;;;;;;;;19.13;51.36;101188.94;5066347;28;19999;-55
2022/09/24 08:11:42;;;;;;;;;;;;;;;19.13;51.08;101193.47;5066595;28;19935;-54
2022/09/24 08:14:08;;;;;;;;;;;;;;;19.13;51.17;101190.78;5066302;28;19992;-51
2022/09/24 08:16:33;;;;;;;;;;;;;;;19.13;51.31;101193.47;5066405;28;19908;-53
2022/09/24 08:18:59;;;;;;;;;;;;;;;19.12;51.29;101198.03;5065677;28;19915;-54
2022/09/24 08:21:25;;;;;;;;;;;;;;;19.13;51.02;101199.72;5065803;28;19917;-54
2022/09/24 08:23:50;;;;;;;;;;;;;;;19.14;51.34;101200.56;5066254;28;19956;-54
2022/09/24 08:26:15;;;;;;;;;;;;;;;19.13;51.10;101202.41;5066109;28;19931;-53
2022/09/24 08:28:40;;;;;;;;;;;;;;;19.13;51.00;101209.66;5065735;28;19908;-52
2022/09/24 08:31:10;;;;;;;;;;;;;;;19.12;51.16;101200.72;5065824;28;20570;-55
2022/09/24 08:33:35;;;;;;;;;;;;;;;19.14;51.14;101214.88;5065109;28;19996;-54
2022/09/24 08:36:01;;;;;;;;;;;;;;;19.13;51.42;101204.25;5065479;28;20393;-55
2022/09/24 08:38:26;;;;;;;;;;;;;;;19.12;51.35;101207.97;5065399;28;19908;-52
2022/09/24 08:40:51;;;;;;;;;;;;;;;19.13;51.07;101212.34;5065730;28;19913;-55
2022/09/24 08:43:16;;;;;;;;;;;;;;;19.12;51.22;101206.13;5065644;28;19976;-55
2022/09/24 08:48:30;;;;;;;;;;;;;;;19.13;51.24;101223.13;5092542;28;19915;-55
2022/09/24 08:51:00;;;;;;;;;;;;;;;19.12;51.17;101216.91;5065441;28;19908;-50
2022/09/24 08:53:34;;;;;;;;;;;;;;;19.13;51.14;101221.28;5097365;28;19908;-54
2022/09/24 08:56:00;;;;;;;;;;;;;;;19.13;51.31;101220.44;5065769;28;19977;-53
2022/09/24 08:58:25;;;;;;;;;;;;;;;19.12;51.16;101224.97;5064920;28;19923;-54
2022/09/24 09:00:54;;;;;;;;;;;;;;;19.12;51.05;101234.91;5065074;28;19919;-53
2022/09/24 09:03:31;;;;;;;;;;;;;;;19.13;51.05;101231.22;5087671;28;19988;-53
2022/09/24 09:05:57;;;;;;;;;;;;;;;19.13;51.25;101233.91;5076825;28;19920;-53
2022/09/24 09:08:27;;;;;;;;;;;;;;;19.12;51.10;101233.06;5044985;28;19923;-54
2022/09/24 09:10:53;;;;;;;;;;;;;;;19.12;50.97;101238.47;5054561;28;19909;-55
2022/09/24 09:13:23;;;;;;;;;;;;;;;19.12;51.27;101238.47;5080533;28;19916;-53
2022/09/24 09:15:49;;;;;;;;;;;;;;;19.11;51.13;101239.44;5080469;28;19909;-50
2022/09/24 09:18:40;;;;;;;;;;;;;;;19.12;51.18;101245.69;5064324;28;19931;-53
2022/09/24 09:21:16;;;;;;;;;;;;;;;19.11;51.10;101244.84;5064264;28;19913;-52
2022/09/24 09:23:47;;;;;;;;;;;;;;;19.11;51.12;101244.84;5065301;28;19909;-53
2022/09/24 09:26:13;;;;;;;;;;;;;;;19.11;51.04;101246.69;5065022;28;19909;-54
2022/09/24 09:28:38;;;;;;;;;;;;;;;19.12;50.96;101251.09;5064630;28;19909;-52
2022/09/24 09:31:12;;;;;;;;;;;;;;;19.12;51.06;101251.09;5064693;28;19961;-55
2022/09/24 09:33:46;;;;;;;;;;;;;;;19.12;51.36;101256.47;5063822;28;19935;-51
2022/09/24 09:36:26;;;;;;;;;;;;;;;19.11;51.00;101255.63;5064054;28;19916;-55
2022/09/24 09:39:11;;;;;;;;;;;;;;;19.12;51.18;101257.31;5063116;28;19909;-53
2022/09/24 09:41:48;;;;;;;;;;;;;;;19.11;51.12;101255.63;5056906;28;19917;-55
2022/09/24 09:44:16;;;;;;;;;;;;;;;19.11;51.08;101260.16;5063452;28;19916;-52
2022/09/24 09:46:45;;;;;;;;;;;;;;;19.11;51.18;101260.16;5064503;28;19966;-56
2022/09/24 09:49:11;;;;;;;;;;;;;;;19.10;51.33;101264.72;5062889;28;19921;-55
2022/09/24 09:51:37;;;;;;;;;;;;;;;19.11;51.00;101262.84;5062944;28;19908;-55
2022/09/24 09:54:03;;;;;;;;;;;;;;;19.11;51.17;101260.16;5064747;28;19963;-55
2022/09/24 09:56:29;;;;;;;;;;;;;;;19.10;51.01;101263.88;5064558;28;20385;-53
2022/09/24 09:59:13;;;;;;;;;;;;;;;19.11;51.13;101263.69;5062706;28;19924;-54
2022/09/24 10:01:41;;;;;;;;;;;;;;;19.10;51.34;101263.88;5063035;28;19920;-55
2022/09/24 10:04:39;;;;;;;;;;;;;;;19.10;51.26;101261.19;5063568;28;19912;-50
2022/09/24 10:07:08;;;;;;;;;;;;;;;19.11;51.23;101270.94;5040155;28;20003;-54
2022/09/24 10:09:33;;;;;;;;;;;;;;;19.10;51.16;101264.72;5064047;28;19950;-53
2022/09/24 10:12:14;;;;;;;;;;;;;;;19.10;51.01;101269.25;5064398;28;19955;-53
2022/09/24 10:14:39;;;;;;;;;;;;;;;19.09;50.96;101265.72;5063478;28;19932;-52
2022/09/24 10:17:05;;;;;;;;;;;;;;;19.09;51.12;101267.56;5063974;28;19913;-51
2022/09/24 10:19:31;;;;;;;;;;;;;;;19.09;51.30;101270.28;5063453;28;19921;-53
2022/09/24 10:21:56;;;;;;;;;;;;;;;19.09;51.06;101268.41;5096103;28;19912;-51
2022/09/24 10:24:25;;;;;;;;;;;;;;;19.09;51.32;101271.13;5064477;28;19913;-54
2022/09/24 10:26:51;;;;;;;;;;;;;;;19.09;51.25;101267.56;5096593;28;19971;-52
2022/09/24 10:32:03;;;;;;;;;;;;;;;19.09;51.17;101256.78;5091331;28;19936;-54
2022/09/24 10:34:28;;;;;;;;;;;;;;;19.08;51.10;101258.66;5063460;28;19909;-50
2022/09/24 10:36:57;;;;;;;;;;;;;;;19.08;51.14;101260.50;5063244;28;19919;-52
2022/09/24 10:39:23;;;;;;;;;;;;;;;19.09;51.43;101262.19;5063369;28;19952;-52
2022/09/24 10:41:49;;;;;;;;;;;;;;;19.08;51.01;101255.13;5064008;28;19935;-51
2022/09/24 10:44:15;;;;;;;;;;;;;;;19.08;51.16;101266.75;5063548;28;20353;-52
2022/09/24 10:47:03;;;;;;;;;;;;;;;19.08;50.95;101263.19;5063926;28;19920;-52
2022/09/24 10:49:28;;;;;;;;;;;;;;;19.07;51.18;101266.88;5061887;28;19908;-54
2022/09/24 10:52:00;;;;;;;;;;;;;;;19.08;51.21;101257.81;5063474;28;19909;-51
2022/09/24 10:54:37;;;;;;;;;;;;;;;19.07;51.29;101269.56;5063712;28;19975;-53
2022/09/24 10:57:08;;;;;;;;;;;;;;;19.08;51.05;101268.59;5063898;28;20351;-50
2022/09/24 10:59:33;;;;;;;;;;;;;;;19.07;51.24;101267.72;5062066;28;20007;-51
2022/09/24 11:01:58;;;;;;;;;;;;;;;19.07;51.11;101264.19;5063565;28;19909;-53
2022/09/24 11:04:27;;;;;;;;;;;;;;;19.07;51.27;101274.97;5062941;28;19920;-54
2022/09/24 11:06:55;;;;;;;;;;;;;;;19.07;51.38;101278.50;5063195;28;19919;-53
2022/09/24 11:09:20;;;;;;;;;;;;;;;19.08;51.26;101276.69;5063137;28;19913;-53
2022/09/24 11:11:46;;;;;;;;;;;;;;;19.07;51.02;101278.50;5063632;28;19915;-52
2022/09/24 11:14:15;;;;;;;;;;;;;;;19.08;51.05;101282.06;5063415;28;19915;-51
2022/09/24 11:16:43;;;;;;;;;;;;;;;19.08;51.26;101280.22;5062163;28;19999;-53
2022/09/24 11:19:14;;;;;;;;;;;;;;;19.08;51.30;101276.69;5061512;28;19940;-51
2022/09/24 11:21:56;;;;;;;;;;;;;;;19.07;51.25;101278.50;5063252;28;19915;-53
2022/09/24 11:24:40;;;;;;;;;;;;;;;19.07;51.02;101278.50;5062019;28;20012;-53
2022/09/24 11:27:10;;;;;;;;;;;;;;;19.07;51.27;101278.50;5066507;28;20027;-50
2022/09/24 11:29:42;;;;;;;;;;;;;;;19.08;51.12;101282.06;5065651;28;19909;-50
2022/09/24 11:32:26;;;;;;;;;;;;;;;19.07;50.98;101280.34;5066859;28;19909;-50
2022/09/24 11:35:02;;;;;;;;;;;;;;;19.07;51.18;101274.97;5066290;28;19919;-53
2022/09/24 11:37:31;;;;;;;;;;;;;;;19.07;51.24;101281.19;5066299;28;19913;-55
2022/09/24 11:40:02;;;;;;;;;;;;;;;19.07;51.18;101283.88;5066771;28;20286;-56
2022/09/24 11:42:30;;;;;;;;;;;;;;;19.07;51.07;101283.03;5067024;28;19909;-50
2022/09/24 11:44:55;;;;;;;;;;;;;;;19.07;51.05;101277.66;5065554;28;19909;-54
2022/09/24 11:47:20;;;;;;;;;;;;;;;19.07;51.11;101283.03;5066514;28;19920;-56
2022/09/24 11:50:04;;;;;;;;;;;;;;;19.06;51.12;101279.50;5065980;28;19912;-54
2022/09/24 11:52:29;;;;;;;;;;;;;;;19.06;51.21;101290.28;5065935;28;19939;-55
2022/09/24 11:54:57;;;;;;;;;;;;;;;19.06;51.05;101289.44;5066600;28;19909;-54
2022/09/24 11:57:24;;;;;;;;;;;;;;;19.05;51.30;101285.91;5066511;28;19927;-55
2022/09/24 11:59:51;;;;;;;;;;;;;;;19.06;50.96;101281.38;5098516;28;19924;-52
2022/09/24 12:02:29;;;;;;;;;;;;;;;19.06;51.26;101286.75;5098368;28;19909;-55
2022/09/24 12:04:59;;;;;;;;;;;;;;;19.05;51.07;101283.22;5060555;28;19912;-55
2022/09/24 12:07:48;;;;;;;;;;;;;;;19.06;51.23;101284.06;5064805;28;19917;-54
2022/09/24 12:10:19;;;;;;;;;;;;;;;19.04;51.09;101283.41;5060350;28;19908;-55
2022/09/24 12:12:45;;;;;;;;;;;;;;;19.05;51.24;101285.06;5066638;28;20332;-55
2022/09/24 12:15:13;;;;;;;;;;;;;;;19.05;51.23;101287.78;5066393;28;19934;-52
2022/09/24 12:17:51;;;;;;;;;;;;;;;19.05;51.19;101285.06;5098653;28;19922;-55
2022/09/24 12:20:18;;;;;;;;;;;;;;;19.04;51.13;101280.69;5065684;28;19913;-50
2022/09/24 12:22:43;;;;;;;;;;;;;;;19.04;51.45;101283.41;5065900;28;19948;-53
2022/09/24 12:25:12;;;;;;;;;;;;;;;19.05;51.26;101287.78;5098674;28;19916;-54
2022/09/24 12:27:37;;;;;;;;;;;;;;;19.04;51.19;101283.41;5066228;28;19909;-51
2022/09/24 12:32:56;;;;;;;;;;;;;;;19.04;51.34;101286.09;5070612;28;20297;-50
2022/09/24 12:35:30;;;;;;;;;;;;;;;19.03;51.16;101282.56;5065789;28;19912;-51
2022/09/24 12:38:14;;;;;;;;;;;;;;;19.04;51.48;101296.88;5064585;28;20004;-53
2022/09/24 12:40:52;;;;;;;;;;;;;;;19.05;51.17;101285.06;5065950;28;19928;-50
2022/09/24 12:43:38;;;;;;;;;;;;;;;19.03;51.35;101289.75;5064613;28;20331;-52
2022/09/24 12:46:03;;;;;;;;;;;;;;;19.03;51.29;101293.34;5058249;28;19908;-52
2022/09/24 12:48:30;;;;;;;;;;;;;;;19.03;51.16;101287.06;5064918;28;19951;-52
2022/09/24 12:50:59;;;;;;;;;;;;;;;19.02;51.31;101283.53;5065126;28;19909;-51
2022/09/24 12:53:26;;;;;;;;;;;;;;;19.04;51.03;101286.09;5064235;28;19912;-49
2022/09/24 12:55:56;;;;;;;;;;;;;;;19.03;51.30;101281.69;5064408;28;19909;-52